Time;durP1;ratioP1;P1;durP2;ratioP2;P2;SDS_P1;SDS_P2;PMS_P1;PMS_P2;Temp;Humidity;BMP_temperature;BMP_pressure;BME280_temperature;BME280_humidity;BME280_pressure;Samples;Min_cycle;Max_cycle;Signal;HPM_P1;HPM_P2
2021/07/21 00:02:23;;;;;;;11.15;6.25;;;18.00;91.50;;;;;;4997979;28;20121;-74
2021/07/21 00:04:49;;;;;;;8.45;5.13;;;18.00;91.40;;;;;;5001296;28;20040;-74
2021/07/21 00:07:15;;;;;;;10.15;6.35;;;18.00;91.50;;;;;;5001247;28;20044;-74
2021/07/21 00:09:41;;;;;;;8.82;5.82;;;18.00;91.60;;;;;;5001407;28;20057;-74
2021/07/21 00:14:50;;;;;;;10.98;5.90;;;18.00;91.60;;;;;;5001204;28;20125;-74
2021/07/21 00:17:31;;;;;;;12.43;6.60;;;18.00;91.60;;;;;;5000635;28;20112;-75
2021/07/21 00:20:09;;;;;;;10.73;5.80;;;18.00;91.70;;;;;;5000309;28;20029;-75
2021/07/21 00:22:41;;;;;;;11.88;6.47;;;17.90;91.70;;;;;;5000335;28;20037;-74
2021/07/21 00:25:10;;;;;;;8.57;5.93;;;17.90;91.70;;;;;;4999084;28;20121;-75
2021/07/21 00:27:35;;;;;;;9.30;5.95;;;17.90;91.70;;;;;;5001711;28;21096;-75
2021/07/21 00:30:03;;;;;;;8.48;5.85;;;17.90;91.90;;;;;;5001885;28;20117;-74
2021/07/21 00:32:29;;;;;;;8.93;5.80;;;17.90;91.90;;;;;;5001525;28;20022;-75
2021/07/21 00:34:54;;;;;;;9.02;5.95;;;17.80;91.90;;;;;;5000406;28;20084;-75
2021/07/21 00:37:20;;;;;;;10.52;6.13;;;17.80;92.00;;;;;;5001945;28;20030;-75
2021/07/21 00:39:45;;;;;;;8.93;6.50;;;17.80;92.10;;;;;;5000663;28;20079;-75
2021/07/21 00:42:11;;;;;;;12.57;6.88;;;17.80;92.20;;;;;;5000513;28;20021;-75
2021/07/21 00:44:36;;;;;;;10.25;6.35;;;17.80;92.20;;;;;;5002432;28;20480;-75
2021/07/21 00:47:02;;;;;;;11.30;7.82;;;17.70;92.20;;;;;;4999847;28;20030;-74
2021/07/21 00:49:28;;;;;;;8.25;6.20;;;17.70;92.20;;;;;;4999744;28;20103;-75
2021/07/21 00:51:54;;;;;;;8.43;6.13;;;17.70;92.20;;;;;;5000878;28;20033;-75
2021/07/21 00:54:20;;;;;;;8.75;5.55;;;17.70;92.20;;;;;;5000600;28;20029;-75
2021/07/21 00:56:47;;;;;;;9.05;5.82;;;17.70;92.30;;;;;;5000274;28;20037;-75
2021/07/21 00:59:13;;;;;;;10.82;5.75;;;17.70;92.30;;;;;;5000186;28;20473;-75
2021/07/21 01:01:39;;;;;;;8.73;6.30;;;17.70;92.40;;;;;;4999936;28;20018;-75
2021/07/21 01:04:05;;;;;;;9.02;6.38;;;17.70;92.30;;;;;;4998177;28;20026;-74
2021/07/21 01:09:00;;;;;;;10.02;8.00;;;17.70;92.30;;;;;;5008479;28;20045;-77
2021/07/21 01:11:37;;;;;;;9.07;6.38;;;17.70;92.30;;;;;;5009528;28;20041;-78
2021/07/21 01:14:12;;;;;;;11.25;7.60;;;17.70;92.40;;;;;;5008958;28;20034;-78
2021/07/21 01:16:42;;;;;;;10.05;7.10;;;17.70;92.40;;;;;;5002057;28;20100;-77
2021/07/21 01:19:14;;;;;;;9.40;6.38;;;17.70;92.40;;;;;;5008935;28;20038;-78
2021/07/21 01:22:09;;;;;;;9.95;7.82;;;17.70;92.40;;;;;;5009870;28;20562;-78
2021/07/21 01:25:04;;;;;;;9.23;7.05;;;17.70;92.50;;;;;;5001471;28;20056;-78
2021/07/21 01:27:44;;;;;;;10.85;6.78;;;17.70;92.50;;;;;;5007957;28;20121;-77
2021/07/21 01:30:12;;;;;;;9.23;7.03;;;17.70;92.50;;;;;;5002180;28;20026;-78
2021/07/21 01:32:40;;;;;;;10.20;7.35;;;17.70;92.60;;;;;;5018147;28;20044;-78
2021/07/21 01:35:12;;;;;;;13.18;6.80;;;17.70;92.70;;;;;;5009215;28;20036;-78
2021/07/21 01:37:40;;;;;;;10.32;7.47;;;17.70;92.70;;;;;;5003610;28;20157;-78
2021/07/21 01:40:11;;;;;;;9.70;6.68;;;17.70;92.80;;;;;;5004699;28;20034;-77
2021/07/21 01:42:38;;;;;;;11.70;7.28;;;17.70;92.80;;;;;;5003783;28;20036;-78
2021/07/21 01:45:07;;;;;;;10.18;6.80;;;17.70;92.80;;;;;;5004719;28;20033;-78
2021/07/21 01:47:33;;;;;;;9.18;7.28;;;17.70;92.80;;;;;;5021867;28;20428;-77
2021/07/21 01:50:00;;;;;;;9.00;7.95;;;17.70;92.90;;;;;;5003632;28;20025;-78
2021/07/21 01:52:28;;;;;;;12.02;7.25;;;17.70;92.90;;;;;;5001969;28;20026;-77
2021/07/21 01:54:57;;;;;;;9.02;7.05;;;17.60;92.90;;;;;;5004390;28;20674;-78
2021/07/21 01:57:31;;;;;;;11.55;7.70;;;17.60;93.00;;;;;;5007467;28;20114;-78
2021/07/21 01:59:58;;;;;;;10.70;7.30;;;17.60;93.10;;;;;;5008857;28;20088;-78
2021/07/21 02:02:26;;;;;;;8.70;7.05;;;17.60;93.30;;;;;;5007456;28;20030;-77
2021/07/21 02:04:52;;;;;;;10.30;8.40;;;17.60;93.30;;;;;;5009219;28;20488;-77
2021/07/21 02:07:20;;;;;;;9.90;7.47;;;17.50;93.40;;;;;;5004861;28;20092;-78
2021/07/21 02:09:47;;;;;;;13.25;8.85;;;17.50;93.50;;;;;;5003585;28;20029;-78
2021/07/21 02:12:14;;;;;;;11.55;7.80;;;17.50;93.50;;;;;;5007550;28;20045;-78
2021/07/21 02:14:42;;;;;;;10.52;6.82;;;17.50;93.40;;;;;;5008792;28;20294;-77
2021/07/21 02:17:07;;;;;;;10.40;7.70;;;17.50;93.50;;;;;;5006471;28;20033;-78
2021/07/21 02:19:34;;;;;;;12.20;8.73;;;17.50;93.60;;;;;;5007880;28;20022;-78
2021/07/21 02:22:00;;;;;;;11.82;7.85;;;17.50;93.50;;;;;;5008639;28;20466;-75
2021/07/21 02:24:28;;;;;;;14.88;9.10;;;17.40;93.70;;;;;;5006031;28;20080;-75
2021/07/21 02:26:54;;;;;;;11.45;8.25;;;17.40;93.60;;;;;;5008666;28;20108;-75
2021/07/21 02:29:22;;;;;;;18.27;9.25;;;17.40;93.60;;;;;;5008497;28;20148;-75
2021/07/21 02:32:03;;;;;;;13.02;8.80;;;17.40;93.60;;;;;;5008368;28;20033;-75
2021/07/21 02:34:29;;;;;;;13.07;8.35;;;17.40;93.60;;;;;;5024136;28;20025;-72
2021/07/21 02:36:56;;;;;;;14.10;7.55;;;17.40;93.60;;;;;;5015387;28;20108;-71
2021/07/21 02:39:22;;;;;;;12.38;8.55;;;17.40;93.70;;;;;;5008155;28;20505;-72
2021/07/21 02:41:47;;;;;;;11.60;8.52;;;17.30;93.70;;;;;;5008807;28;20026;-72
2021/07/21 02:44:14;;;;;;;15.65;7.68;;;17.40;93.80;;;;;;5012697;28;20030;-72
2021/07/21 02:46:39;;;;;;;13.43;11.32;;;17.30;93.70;;;;;;5011929;28;20022;-71
2021/07/21 02:49:05;;;;;;;10.45;8.18;;;17.40;93.60;;;;;;5011863;28;20088;-72
2021/07/21 02:51:36;;;;;;;11.85;8.75;;;17.40;93.60;;;;;;5011559;28;20492;-75
2021/07/21 02:54:17;;;;;;;13.20;8.38;;;17.40;93.60;;;;;;5003057;28;20112;-75
2021/07/21 02:56:51;;;;;;;11.23;7.82;;;17.40;93.60;;;;;;5010427;28;20519;-75
2021/07/21 02:59:21;;;;;;;12.27;8.30;;;17.40;93.70;;;;;;5010704;28;20084;-77
2021/07/21 03:01:48;;;;;;;11.68;8.68;;;17.40;93.60;;;;;;5008514;28;20018;-78
2021/07/21 03:04:22;;;;;;;12.60;7.57;;;17.40;93.60;;;;;;5011536;28;20026;-72
2021/07/21 03:06:50;;;;;;;11.43;7.88;;;17.40;93.70;;;;;;5011899;28;20022;-72
2021/07/21 03:09:20;;;;;;;15.57;8.07;;;17.40;93.60;;;;;;5010401;28;20034;-72
2021/07/21 03:11:50;;;;;;;12.80;9.23;;;17.40;93.70;;;;;;5012096;28;20064;-72
2021/07/21 03:14:17;;;;;;;11.52;8.60;;;17.40;93.70;;;;;;5025912;28;20072;-72
2021/07/21 03:16:47;;;;;;;10.05;7.97;;;17.50;93.70;;;;;;5010977;28;20097;-72
2021/07/21 03:19:16;;;;;;;10.85;7.32;;;17.50;94.00;;;;;;5011213;28;20412;-72
2021/07/21 03:21:43;;;;;;;9.18;7.40;;;17.40;93.80;;;;;;5011599;28;20052;-72
2021/07/21 03:24:10;;;;;;;13.70;7.95;;;17.40;93.90;;;;;;5010889;28;20178;-72
2021/07/21 03:26:36;;;;;;;11.13;7.93;;;17.30;93.90;;;;;;5011999;28;20490;-72
2021/07/21 03:29:02;;;;;;;9.98;7.75;;;17.30;94.00;;;;;;5010967;28;20030;-72
2021/07/21 03:31:28;;;;;;;17.48;8.43;;;17.30;94.10;;;;;;5011603;28;20029;-72
2021/07/21 03:34:06;;;;;;;10.25;8.10;;;17.30;94.10;;;;;;5010821;28;20045;-72
2021/07/21 03:36:38;;;;;;;11.65;8.43;;;17.30;94.20;;;;;;5011137;28;20080;-72
2021/07/21 03:39:06;;;;;;;12.68;9.18;;;17.20;94.20;;;;;;5011452;28;20128;-72
2021/07/21 03:41:34;;;;;;;10.27;7.95;;;17.20;94.40;;;;;;5010652;28;20068;-72
2021/07/21 03:44:03;;;;;;;13.40;9.18;;;17.30;94.10;;;;;;5010335;28;20030;-75
2021/07/21 03:46:29;;;;;;;11.77;8.82;;;17.30;94.10;;;;;;5024925;28;20046;-75
2021/07/21 03:48:57;;;;;;;21.80;8.55;;;17.30;94.10;;;;;;5010514;28;20049;-75
2021/07/21 03:51:23;;;;;;;12.82;8.35;;;17.40;94.10;;;;;;5025388;28;20499;-75
2021/07/21 03:53:50;;;;;;;14.70;9.00;;;17.30;94.00;;;;;;5009158;28;20030;-72
2021/07/21 03:56:16;;;;;;;10.90;8.10;;;17.40;94.00;;;;;;5010279;28;20030;-72
2021/07/21 03:58:42;;;;;;;9.30;8.30;;;17.30;94.10;;;;;;5026235;28;20026;-72
2021/07/21 04:01:09;;;;;;;10.15;7.75;;;17.30;94.10;;;;;;5005061;28;20048;-72
2021/07/21 04:03:37;;;;;;;10.02;7.70;;;17.30;94.10;;;;;;5006078;28;20103;-72
2021/07/21 04:06:04;;;;;;;12.73;8.43;;;17.30;94.20;;;;;;5011290;28;20504;-72
2021/07/21 04:08:30;;;;;;;13.13;7.85;;;17.30;94.30;;;;;;5007433;28;20489;-71
2021/07/21 04:10:56;;;;;;;13.55;8.75;;;17.30;94.30;;;;;;5006739;28;20026;-72
2021/07/21 04:13:23;;;;;;;16.80;8.38;;;17.30;94.30;;;;;;5010512;28;20033;-74
2021/07/21 04:15:50;;;;;;;11.13;7.95;;;17.30;94.20;;;;;;5008100;28;20034;-74
2021/07/21 04:18:20;;;;;;;11.15;8.90;;;17.30;94.30;;;;;;5007443;28;20088;-71
2021/07/21 04:20:47;;;;;;;11.48;7.88;;;17.30;94.30;;;;;;5010080;28;20033;-71
2021/07/21 04:23:12;;;;;;;14.02;8.07;;;17.30;94.30;;;;;;5008703;28;20026;-72
2021/07/21 04:25:39;;;;;;;11.13;8.27;;;17.30;94.30;;;;;;5008218;28;20476;-72
2021/07/21 04:28:06;;;;;;;14.05;8.05;;;17.30;94.30;;;;;;5009968;28;20044;-72
2021/07/21 04:30:33;;;;;;;11.35;9.10;;;17.30;94.30;;;;;;5011070;28;20108;-72
2021/07/21 04:33:00;;;;;;;12.65;9.48;;;17.40;94.30;;;;;;5024218;28;20037;-72
2021/07/21 04:35:29;;;;;;;12.80;9.18;;;17.40;94.30;;;;;;5009844;28;20087;-72
2021/07/21 04:37:56;;;;;;;13.60;9.80;;;17.40;94.40;;;;;;5009690;28;20065;-73
2021/07/21 04:40:22;;;;;;;12.50;9.25;;;17.40;94.40;;;;;;5010853;28;20030;-72
2021/07/21 04:42:47;;;;;;;13.93;8.70;;;17.40;94.40;;;;;;5007044;28;20044;-72
2021/07/21 04:45:14;;;;;;;14.60;8.07;;;17.40;94.30;;;;;;5009881;28;20038;-73
2021/07/21 04:47:40;;;;;;;11.70;9.02;;;17.40;94.40;;;;;;5010016;28;20029;-73
2021/07/21 04:50:13;;;;;;;16.60;8.45;;;17.40;94.40;;;;;;5008255;28;20078;-72
2021/07/21 04:52:39;;;;;;;14.30;8.57;;;17.40;94.40;;;;;;5008829;28;20084;-73
2021/07/21 04:55:06;;;;;;;10.68;8.23;;;17.40;94.40;;;;;;5008932;28;20060;-73
2021/07/21 04:57:32;;;;;;;14.18;9.45;;;17.50;94.70;;;;;;5010050;28;20034;-73
2021/07/21 04:59:57;;;;;;;14.43;10.43;;;17.50;94.40;;;;;;5008142;28;20499;-73
2021/07/21 05:02:23;;;;;;;12.45;9.30;;;17.50;94.40;;;;;;5008329;28;20029;-73
2021/07/21 05:04:48;;;;;;;13.43;9.23;;;17.50;94.40;;;;;;5008753;28;20057;-73
2021/07/21 05:07:16;;;;;;;18.80;11.75;;;17.50;94.40;;;;;;5008832;28;20049;-73
2021/07/21 05:09:42;;;;;;;12.80;10.02;;;17.50;94.40;;;;;;5008223;28;20026;-73
2021/07/21 05:12:09;;;;;;;16.77;12.77;;;17.50;94.40;;;;;;5008609;28;20073;-74
2021/07/21 05:14:34;;;;;;;9.68;7.35;;;17.60;94.30;;;;;;5007288;28;20041;-74
2021/07/21 05:17:00;;;;;;;14.25;9.95;;;17.60;94.30;;;;;;5008423;28;20370;-73
2021/07/21 05:19:25;;;;;;;13.05;9.45;;;17.60;94.30;;;;;;5014933;28;20048;-74
2021/07/21 05:21:52;;;;;;;15.13;9.50;;;17.60;94.30;;;;;;5007115;28;20030;-74
2021/07/21 05:24:19;;;;;;;11.82;8.57;;;17.60;94.30;;;;;;5008093;28;20468;-73
2021/07/21 05:26:47;;;;;;;13.48;10.00;;;17.60;94.40;;;;;;5007287;28;20551;-73
2021/07/21 05:29:13;;;;;;;11.57;7.80;;;17.60;94.30;;;;;;5008560;28;20038;-73
2021/07/21 05:31:38;;;;;;;12.65;8.95;;;17.60;94.40;;;;;;5007954;28;20022;-73
2021/07/21 05:34:04;;;;;;;13.05;9.32;;;17.60;94.60;;;;;;5008642;28;20030;-73
2021/07/21 05:36:35;;;;;;;12.25;8.65;;;17.60;94.50;;;;;;5008434;28;20109;-73
2021/07/21 05:39:08;;;;;;;12.10;8.23;;;17.60;94.50;;;;;;5008140;28;20092;-73
2021/07/21 05:41:34;;;;;;;13.32;9.45;;;17.60;94.80;;;;;;5008217;28;20029;-73
2021/07/21 05:44:00;;;;;;;19.35;12.05;;;17.60;94.60;;;;;;5008738;28;20080;-73
2021/07/21 05:46:26;;;;;;;15.60;9.63;;;17.60;94.50;;;;;;5024028;28;20389;-73
2021/07/21 05:48:51;;;;;;;14.55;11.23;;;17.70;94.50;;;;;;5008103;28;20038;-73
2021/07/21 05:51:17;;;;;;;12.38;9.13;;;17.80;94.30;;;;;;5009296;28;20040;-73
2021/07/21 05:53:42;;;;;;;15.40;11.02;;;17.80;94.30;;;;;;5015761;28;20030;-73
2021/07/21 05:56:12;;;;;;;15.40;9.52;;;17.90;94.10;;;;;;5007953;28;20037;-73
2021/07/21 05:58:37;;;;;;;15.07;9.93;;;18.00;94.10;;;;;;5008175;28;20049;-73
2021/07/21 06:01:03;;;;;;;19.10;10.90;;;18.00;94.00;;;;;;5009382;28;20022;-73
2021/07/21 06:03:28;;;;;;;11.38;8.68;;;18.00;94.00;;;;;;5007948;28;20428;-73
2021/07/21 06:05:54;;;;;;;18.38;10.13;;;18.10;94.00;;;;;;5008225;28;20517;-74
2021/07/21 06:08:19;;;;;;;16.35;9.45;;;18.10;93.90;;;;;;5009093;28;20044;-74
2021/07/21 06:10:45;;;;;;;14.32;8.75;;;18.00;93.80;;;;;;5008301;28;20614;-74
2021/07/21 06:13:11;;;;;;;12.40;8.43;;;18.10;93.80;;;;;;5007574;28;20026;-73
2021/07/21 06:15:39;;;;;;;13.07;8.50;;;18.10;93.80;;;;;;5022846;28;20034;-73
2021/07/21 06:18:04;;;;;;;16.27;9.57;;;18.10;93.90;;;;;;5010122;28;20041;-74
2021/07/21 06:20:30;;;;;;;14.02;9.20;;;18.00;93.90;;;;;;4998848;28;20113;-76
2021/07/21 06:22:55;;;;;;;19.75;11.23;;;18.10;93.90;;;;;;5011078;28;20026;-75
2021/07/21 06:25:21;;;;;;;19.17;10.18;;;18.10;93.80;;;;;;5013000;28;20026;-74
2021/07/21 06:27:48;;;;;;;14.13;9.70;;;18.10;93.80;;;;;;5026989;28;20026;-73
2021/07/21 06:30:14;;;;;;;13.05;8.70;;;18.10;93.80;;;;;;5027563;28;20125;-74
2021/07/21 06:32:40;;;;;;;23.13;11.45;;;18.10;93.90;;;;;;5012428;28;20034;-75
2021/07/21 06:35:08;;;;;;;14.57;8.73;;;18.10;93.80;;;;;;5012410;28;20447;-74
2021/07/21 06:37:34;;;;;;;18.15;9.82;;;18.20;93.70;;;;;;5012441;28;20033;-74
2021/07/21 06:40:00;;;;;;;17.95;12.75;;;18.20;93.70;;;;;;5009927;28;20506;-74
2021/07/21 06:42:26;;;;;;;17.83;10.25;;;18.30;93.60;;;;;;5012202;28;20594;-74
2021/07/21 06:44:52;;;;;;;12.15;8.68;;;18.30;93.60;;;;;;5006740;28;20373;-73
2021/07/21 06:47:20;;;;;;;19.52;12.13;;;18.30;93.60;;;;;;5010249;28;20026;-74
2021/07/21 06:49:50;;;;;;;23.10;17.15;;;18.40;93.50;;;;;;5008620;28;20034;-73
2021/07/21 06:52:16;;;;;;;17.98;10.27;;;18.40;93.50;;;;;;5012054;28;20038;-75
2021/07/21 06:54:42;;;;;;;20.73;12.90;;;18.50;93.40;;;;;;5018433;28;20022;-75
2021/07/21 06:57:09;;;;;;;22.77;14.00;;;18.50;93.30;;;;;;5026550;28;20026;-75
2021/07/21 06:59:36;;;;;;;17.33;10.10;;;18.60;93.30;;;;;;5003292;28;20040;-75
2021/07/21 07:02:03;;;;;;;20.35;13.20;;;18.60;93.20;;;;;;5011935;28;20492;-74
2021/07/21 07:04:28;;;;;;;14.48;9.43;;;18.70;93.10;;;;;;5010247;28;20755;-73
2021/07/21 07:06:54;;;;;;;14.73;9.45;;;18.80;93.00;;;;;;5011851;28;20137;-73
2021/07/21 07:09:19;;;;;;;12.05;9.25;;;18.80;93.00;;;;;;5010630;28;20053;-72
2021/07/21 07:11:45;;;;;;;13.50;9.05;;;18.80;93.00;;;;;;5010935;28;20033;-72
2021/07/21 07:14:10;;;;;;;14.85;8.65;;;18.70;93.10;;;;;;5011192;28;20033;-73
2021/07/21 07:16:36;;;;;;;13.02;8.65;;;18.70;93.10;;;;;;5012048;28;20029;-72
2021/07/21 07:19:02;;;;;;;14.65;8.80;;;18.60;93.20;;;;;;5010485;28;20116;-72
2021/07/21 07:21:29;;;;;;;16.05;9.07;;;18.60;93.30;;;;;;5011622;28;20033;-73
2021/07/21 07:23:55;;;;;;;17.77;9.57;;;18.70;93.10;;;;;;5010983;28;20057;-74
2021/07/21 07:26:21;;;;;;;13.63;10.23;;;18.70;92.90;;;;;;5011982;28;20393;-74
2021/07/21 07:28:47;;;;;;;14.98;8.85;;;18.60;93.00;;;;;;5010158;28;20219;-74
2021/07/21 07:31:12;;;;;;;13.40;9.73;;;18.60;93.20;;;;;;5010472;28;20556;-74
2021/07/21 07:33:38;;;;;;;13.07;9.65;;;18.50;93.10;;;;;;5027110;28;20072;-74
2021/07/21 07:36:05;;;;;;;15.02;9.00;;;18.60;93.20;;;;;;5009831;28;20072;-75
2021/07/21 07:38:30;;;;;;;13.20;8.93;;;18.60;93.20;;;;;;5009613;28;20045;-75
2021/07/21 07:40:56;;;;;;;14.70;8.52;;;18.70;93.10;;;;;;5025879;28;20022;-75
2021/07/21 07:43:22;;;;;;;17.90;11.00;;;18.80;93.00;;;;;;5010549;28;20030;-75
2021/07/21 07:45:47;;;;;;;16.15;11.27;;;19.00;92.90;;;;;;5010313;28;20061;-75
2021/07/21 07:48:13;;;;;;;15.32;9.80;;;19.00;92.60;;;;;;5008796;28;20091;-74
2021/07/21 07:50:38;;;;;;;15.98;10.73;;;19.00;92.90;;;;;;5008856;28;20037;-74
2021/07/21 07:53:04;;;;;;;15.60;10.60;;;19.00;92.70;;;;;;5017511;28;20044;-74
2021/07/21 07:55:29;;;;;;;15.32;9.98;;;19.10;92.60;;;;;;5010371;28;20049;-74
2021/07/21 07:57:55;;;;;;;20.33;11.90;;;19.20;92.50;;;;;;5010917;28;20030;-73
2021/07/21 08:00:22;;;;;;;14.88;10.05;;;19.30;92.30;;;;;;5025181;28;20026;-74
2021/07/21 08:02:47;;;;;;;18.63;10.00;;;19.50;92.20;;;;;;5009156;28;20025;-74
2021/07/21 08:05:13;;;;;;;12.85;9.15;;;19.50;92.00;;;;;;5011105;28;20477;-74
2021/07/21 08:07:39;;;;;;;16.52;11.05;;;19.60;91.80;;;;;;5007530;28;20180;-74
2021/07/21 08:10:10;;;;;;;14.38;9.88;;;19.70;91.80;;;;;;5008681;28;20117;-74
2021/07/21 08:12:35;;;;;;;22.10;10.05;;;19.80;91.50;;;;;;5017180;28;20042;-73
2021/07/21 08:15:01;;;;;;;13.70;9.20;;;19.90;91.40;;;;;;5010184;28;20037;-73
2021/07/21 08:17:26;;;;;;;14.07;9.90;;;20.00;91.20;;;;;;5010656;28;20037;-73
2021/07/21 08:19:52;;;;;;;16.60;10.55;;;20.10;91.10;;;;;;5009274;28;20072;-73
2021/07/21 08:22:17;;;;;;;18.65;9.40;;;20.10;91.00;;;;;;5010358;28;20029;-74
2021/07/21 08:24:43;;;;;;;13.48;9.85;;;20.10;90.80;;;;;;5010355;28;20018;-74
2021/07/21 08:27:08;;;;;;;13.70;10.13;;;20.10;90.80;;;;;;5008913;28;20424;-75
2021/07/21 08:29:34;;;;;;;14.30;9.02;;;20.00;90.30;;;;;;5011031;28;20030;-75
2021/07/21 08:31:59;;;;;;;14.80;8.98;;;19.90;90.60;;;;;;5009871;28;20052;-75
2021/07/21 08:34:25;;;;;;;11.55;8.82;;;19.90;90.80;;;;;;5011112;28;20037;-76
2021/07/21 08:36:50;;;;;;;20.63;9.35;;;19.80;90.70;;;;;;5010333;28;20120;-75
2021/07/21 08:39:16;;;;;;;20.08;9.35;;;19.90;90.80;;;;;;5008951;28;20061;-75
2021/07/21 08:41:43;;;;;;;13.88;10.18;;;19.80;90.70;;;;;;5009110;28;20026;-75
2021/07/21 08:44:14;;;;;;;17.33;9.65;;;19.90;90.80;;;;;;5010328;28;20026;-74
2021/07/21 08:46:40;;;;;;;14.00;8.70;;;19.90;91.10;;;;;;5023777;28;20026;-74
2021/07/21 08:49:07;;;;;;;13.23;8.93;;;19.90;90.80;;;;;;5009091;28;20026;-74
2021/07/21 08:51:34;;;;;;;13.43;9.10;;;20.10;90.80;;;;;;5023975;28;20535;-74
2021/07/21 08:53:59;;;;;;;14.80;9.35;;;20.30;90.60;;;;;;5017377;28;20040;-74
2021/07/21 08:56:25;;;;;;;20.80;9.05;;;20.50;90.40;;;;;;5009123;28;20029;-74
2021/07/21 08:58:51;;;;;;;17.92;9.68;;;20.60;90.10;;;;;;5007932;28;20030;-74
2021/07/21 09:01:18;;;;;;;18.20;9.40;;;20.60;90.00;;;;;;5010165;28;20025;-75
2021/07/21 09:03:44;;;;;;;19.08;10.77;;;20.70;89.80;;;;;;5009312;28;20018;-74
2021/07/21 09:06:13;;;;;;;16.13;8.63;;;20.80;89.90;;;;;;5025027;28;20034;-74
2021/07/21 09:08:38;;;;;;;13.52;9.70;;;20.80;89.70;;;;;;5009095;28;20069;-73
2021/07/21 09:11:04;;;;;;;15.50;9.68;;;21.00;89.60;;;;;;5008894;28;20065;-73
2021/07/21 09:13:33;;;;;;;13.65;8.77;;;21.10;88.50;;;;;;5009840;28;20033;-73
2021/07/21 09:16:00;;;;;;;13.52;9.15;;;21.10;88.00;;;;;;5008470;28;20030;-74
2021/07/21 09:18:28;;;;;;;13.15;9.52;;;21.20;88.20;;;;;;5007699;28;20412;-75
2021/07/21 09:20:56;;;;;;;15.10;9.82;;;21.20;87.30;;;;;;5024132;28;20754;-74
2021/07/21 09:23:36;;;;;;;13.90;10.25;;;21.40;87.50;;;;;;5009252;28;20143;-75
2021/07/21 09:26:02;;;;;;;12.68;8.75;;;21.50;87.00;;;;;;5025598;28;20444;-75
2021/07/21 09:28:39;;;;;;;17.83;9.18;;;21.70;86.70;;;;;;5007695;28;20065;-73
2021/07/21 09:31:05;;;;;;;10.73;8.10;;;21.80;85.70;;;;;;5008940;28;20038;-74
2021/07/21 09:33:31;;;;;;;10.02;7.53;;;22.10;86.10;;;;;;5008114;28;20118;-75
2021/07/21 09:35:57;;;;;;;10.43;7.65;;;22.40;84.50;;;;;;5025116;28;20030;-74
2021/07/21 09:38:25;;;;;;;9.27;7.63;;;22.50;83.20;;;;;;5007567;28;20036;-74
2021/07/21 09:40:54;;;;;;;10.82;7.05;;;22.40;80.90;;;;;;5008563;28;20481;-74
2021/07/21 09:43:22;;;;;;;10.77;6.82;;;22.30;82.10;;;;;;5009367;28;20113;-74
2021/07/21 09:45:48;;;;;;;9.55;7.60;;;22.30;82.50;;;;;;5009196;28;20481;-74
2021/07/21 09:48:15;;;;;;;13.93;8.88;;;22.20;81.10;;;;;;5006568;28;20061;-77
2021/07/21 09:50:43;;;;;;;11.07;8.57;;;22.20;81.30;;;;;;5007430;28;20440;-77
2021/07/21 09:53:12;;;;;;;11.35;8.70;;;22.00;81.20;;;;;;5009440;28;20068;-76
2021/07/21 09:55:40;;;;;;;14.98;9.55;;;22.00;81.40;;;;;;5007330;28;20030;-77
2021/07/21 09:58:08;;;;;;;11.68;8.82;;;21.90;81.10;;;;;;5023274;28;20040;-76
2021/07/21 10:00:44;;;;;;;14.20;8.95;;;21.90;81.90;;;;;;5008518;28;20044;-76
2021/07/21 10:03:21;;;;;;;9.93;7.68;;;21.90;81.00;;;;;;5009348;28;20066;-77
2021/07/21 10:05:59;;;;;;;17.80;8.55;;;21.80;80.40;;;;;;5008394;28;20080;-77
2021/07/21 10:08:34;;;;;;;11.02;8.35;;;21.70;81.00;;;;;;5023424;28;20049;-76
2021/07/21 10:11:26;;;;;;;11.20;7.75;;;21.70;81.00;;;;;;5008160;28;20104;-75
2021/07/21 10:14:13;;;;;;;9.52;7.03;;;21.70;81.10;;;;;;5005689;28;20683;-75
2021/07/21 10:16:42;;;;;;;7.80;7.00;;;21.80;81.10;;;;;;5008306;28;20025;-75
2021/07/21 10:19:13;;;;;;;10.30;7.28;;;21.80;81.20;;;;;;5008717;28;20058;-73
2021/07/21 10:21:43;;;;;;;8.60;7.30;;;21.90;80.50;;;;;;5008893;28;20026;-74
2021/07/21 10:24:10;;;;;;;10.77;7.15;;;21.80;80.00;;;;;;5008641;28;20085;-75
2021/07/21 10:26:36;;;;;;;8.85;7.43;;;21.70;79.70;;;;;;5008746;28;20034;-75
2021/07/21 10:29:03;;;;;;;11.18;6.90;;;21.60;80.00;;;;;;5014853;28;20392;-73
2021/07/21 10:31:29;;;;;;;13.45;7.05;;;21.50;79.90;;;;;;5010006;28;20029;-75
2021/07/21 10:33:55;;;;;;;10.63;8.38;;;21.50;80.70;;;;;;4998782;28;20034;-75
2021/07/21 10:36:20;;;;;;;11.57;7.07;;;21.40;80.70;;;;;;5007001;28;20551;-74
2021/07/21 10:38:47;;;;;;;12.02;7.22;;;21.50;80.80;;;;;;5007833;28;20037;-75
2021/07/21 10:41:16;;;;;;;13.00;7.60;;;21.50;80.30;;;;;;5022329;28;20471;-75
2021/07/21 10:44:01;;;;;;;13.23;7.30;;;21.40;80.30;;;;;;5021321;28;20444;-75
2021/07/21 10:46:34;;;;;;;11.25;6.70;;;21.40;80.40;;;;;;5008669;28;20505;-75
2021/07/21 11:00:38;;;;;;;10.40;6.78;;;21.30;81.20;;;;;;5008247;28;20080;-75
2021/07/21 11:03:23;;;;;;;10.85;7.60;;;21.20;81.00;;;;;;5008801;28;20385;-73
2021/07/21 11:06:04;;;;;;;9.90;6.47;;;21.30;81.00;;;;;;5011610;28;20022;-73
2021/07/21 11:08:30;;;;;;;12.50;6.75;;;21.30;81.10;;;;;;5009367;28;20037;-72
2021/07/21 11:11:17;;;;;;;10.82;7.45;;;21.40;81.30;;;;;;5012072;28;20033;-72
2021/07/21 11:13:43;;;;;;;11.50;6.85;;;21.50;81.00;;;;;;5011437;28;20054;-72
2021/07/21 11:16:40;;;;;;;12.88;7.15;;;21.60;80.60;;;;;;5010775;28;20135;-73
2021/07/21 11:19:25;;;;;;;11.93;7.18;;;21.60;80.80;;;;;;5010482;28;20116;-72
2021/07/21 11:22:03;;;;;;;12.65;7.47;;;21.70;80.50;;;;;;5012086;28;20503;-73
2021/07/21 11:24:30;;;;;;;11.55;6.85;;;21.70;80.30;;;;;;5009340;28;20555;-72
2021/07/21 11:26:57;;;;;;;10.00;7.60;;;21.70;79.50;;;;;;5011720;28;20022;-72
2021/07/21 11:29:33;;;;;;;9.88;6.93;;;21.50;79.00;;;;;;5010916;28;20029;-74
2021/07/21 11:32:00;;;;;;;13.13;7.78;;;21.40;79.70;;;;;;5026341;28;20022;-72
2021/07/21 11:34:30;;;;;;;11.48;7.75;;;21.30;79.80;;;;;;5005949;28;20479;-71
2021/07/21 11:37:00;;;;;;;9.90;7.07;;;21.30;80.30;;;;;;5010419;28;20053;-73
2021/07/21 11:39:30;;;;;;;14.93;7.70;;;21.30;79.70;;;;;;5009129;28;20405;-71
2021/07/21 11:41:57;;;;;;;12.48;7.38;;;21.20;78.60;;;;;;5010503;28;20057;-72
2021/07/21 11:44:29;;;;;;;11.73;7.63;;;21.00;79.20;;;;;;5017775;28;20030;-72
2021/07/21 11:46:56;;;;;;;11.57;7.10;;;20.80;79.80;;;;;;5025162;28;20729;-72
2021/07/21 11:49:27;;;;;;;10.32;7.55;;;20.70;80.30;;;;;;5010165;28;20457;-71
2021/07/21 11:51:55;;;;;;;12.27;7.32;;;20.60;80.50;;;;;;5010239;28;20044;-71
2021/07/21 11:54:30;;;;;;;12.98;7.55;;;20.60;80.90;;;;;;5011589;28;20030;-71
2021/07/21 11:56:58;;;;;;;14.18;7.72;;;20.50;81.20;;;;;;5008935;28;20061;-71
2021/07/21 11:59:37;;;;;;;12.73;7.07;;;20.40;81.50;;;;;;5009491;28;20065;-72
2021/07/21 12:02:16;;;;;;;10.98;7.95;;;20.40;81.70;;;;;;5011220;28;20022;-72
2021/07/21 12:04:50;;;;;;;10.60;7.88;;;20.30;82.40;;;;;;5010295;28;20033;-74
2021/07/21 12:07:18;;;;;;;11.95;7.97;;;20.20;84.10;;;;;;5025528;28;20167;-74
2021/07/21 12:09:46;;;;;;;14.25;8.82;;;20.10;85.30;;;;;;5009453;28;20032;-72
2021/07/21 12:12:16;;;;;;;10.75;8.40;;;20.00;85.90;;;;;;5009397;28;20489;-72
2021/07/21 12:14:54;;;;;;;13.75;8.93;;;19.90;86.10;;;;;;5011338;28;20026;-71
2021/07/21 12:17:21;;;;;;;11.00;6.95;;;19.90;85.90;;;;;;5009407;28;20049;-71
2021/07/21 12:19:56;;;;;;;11.13;7.82;;;19.80;86.00;;;;;;5009283;28;20720;-70
2021/07/21 12:22:23;;;;;;;11.75;8.48;;;19.80;86.20;;;;;;5010001;28;20034;-71
2021/07/21 12:24:51;;;;;;;14.25;9.07;;;19.80;86.20;;;;;;5002174;28;20149;-71
2021/07/21 12:27:46;;;;;;;13.57;8.30;;;19.80;86.30;;;;;;5009426;28;20057;-71
2021/07/21 12:30:21;;;;;;;10.35;8.52;;;19.80;86.40;;;;;;5010691;28;20026;-71
2021/07/21 12:32:48;;;;;;;9.27;7.70;;;19.90;86.10;;;;;;5010720;28;20049;-72
2021/07/21 12:35:17;;;;;;;11.07;7.97;;;19.90;85.50;;;;;;5018120;28;20118;-71
2021/07/21 12:37:53;;;;;;;11.32;7.90;;;19.90;85.20;;;;;;5010196;28;20515;-71
2021/07/21 12:40:24;;;;;;;9.80;7.55;;;19.90;85.10;;;;;;5009543;28;20038;-72
2021/07/21 12:42:53;;;;;;;12.65;7.50;;;20.00;84.80;;;;;;5009076;28;20385;-73
2021/07/21 12:45:20;;;;;;;14.73;9.20;;;20.00;84.60;;;;;;5009317;28;20073;-71
2021/07/21 12:47:48;;;;;;;11.55;7.20;;;20.10;84.60;;;;;;5000669;28;20128;-72
2021/07/21 12:50:17;;;;;;;10.43;7.82;;;20.20;84.30;;;;;;5008070;28;20077;-72
2021/07/21 12:52:45;;;;;;;15.20;8.90;;;20.40;84.10;;;;;;5009310;28;20088;-71
2021/07/21 12:55:17;;;;;;;14.85;9.43;;;20.50;84.00;;;;;;5009587;28;20057;-70
2021/07/21 12:57:48;;;;;;;11.73;8.07;;;20.70;83.50;;;;;;5024893;28;20029;-71
2021/07/21 13:00:20;;;;;;;12.38;6.85;;;20.90;83.20;;;;;;4999988;28;20032;-71
2021/07/21 13:03:08;;;;;;;17.13;7.35;;;21.10;82.10;;;;;;5024683;28;20471;-72